createdAt,value
2018-12-20T00:00:57.644Z,36.00
2018-12-20T00:01:57.629Z,37.20
2018-12-20T00:02:57.583Z,37.60
2018-12-20T00:03:57.777Z,36.80
2018-12-20T00:04:57.550Z,38.60
2018-12-20T00:05:57.554Z,37.00
2018-12-20T00:06:57.558Z,35.90
2018-12-20T00:07:57.520Z,38.30
2018-12-20T00:09:06.379Z,38.30
2018-12-20T00:10:07.940Z,38.40
2018-12-20T00:11:06.498Z,35.90
2018-12-20T00:12:07.050Z,37.10
2018-12-20T00:13:05.565Z,36.90
2018-12-20T00:13:57.446Z,37.40
2018-12-20T00:14:57.483Z,36.50
2018-12-20T00:15:57.493Z,38.00
2018-12-20T00:16:57.522Z,36.70
2018-12-20T00:17:57.468Z,38.70
2018-12-20T00:18:57.523Z,39.90
2018-12-20T00:21:15.438Z,37.30
2018-12-20T00:22:22.865Z,38.60
2018-12-20T00:23:24.567Z,38.60
2018-12-20T00:24:15.386Z,38.20
2018-12-20T00:25:15.189Z,38.90
2018-12-20T00:26:15.207Z,38.00
2018-12-20T00:27:15.131Z,39.30
2018-12-20T00:28:15.217Z,40.00
2018-12-20T00:29:15.127Z,38.20
2018-12-20T00:30:15.143Z,36.90
2018-12-20T00:31:15.486Z,37.30
2018-12-20T00:32:15.122Z,40.80
2018-12-20T00:33:15.089Z,38.80
2018-12-20T00:34:15.126Z,40.60
2018-12-20T00:35:15.077Z,39.60
2018-12-20T00:36:15.191Z,38.50
2018-12-20T00:37:15.101Z,38.40
2018-12-20T00:38:15.042Z,37.30
2018-12-20T00:39:15.197Z,40.50
2018-12-20T00:40:24.485Z,38.60
2018-12-20T00:41:15.113Z,38.00
2018-12-20T00:42:24.701Z,38.70
2018-12-20T00:43:15.072Z,39.30
2018-12-20T00:44:15.016Z,39.70
2018-12-20T00:45:15.009Z,39.30
2018-12-20T00:46:24.138Z,37.40
2018-12-20T00:47:24.315Z,38.40
2018-12-20T00:48:24.311Z,40.00
2018-12-20T00:49:23.784Z,38.90
2018-12-20T00:50:25.214Z,40.10
2018-12-20T00:51:25.367Z,39.30
2018-12-20T00:52:24.301Z,39.80
2018-12-20T00:53:24.392Z,40.20
2018-12-20T00:54:14.934Z,40.30
2018-12-20T00:55:14.888Z,40.90
2018-12-20T00:56:14.891Z,40.20
2018-12-20T00:57:14.871Z,40.20
2018-12-20T00:58:14.845Z,41.90
2018-12-20T00:59:14.893Z,40.30
2018-12-20T01:00:14.949Z,40.10
2018-12-20T01:01:15.205Z,39.50
2018-12-20T01:02:14.894Z,42.10
2018-12-20T01:03:14.855Z,39.60
2018-12-20T01:04:14.877Z,39.60
2018-12-20T01:05:14.999Z,39.60
2018-12-20T01:06:14.969Z,41.00
2018-12-20T01:07:14.746Z,40.90
2018-12-20T01:08:14.982Z,39.70
2018-12-20T01:09:14.795Z,40.20
2018-12-20T01:10:15.038Z,41.60
2018-12-20T01:11:14.833Z,40.70
2018-12-20T01:12:14.859Z,40.00
2018-12-20T01:13:14.681Z,40.50
2018-12-20T01:14:14.664Z,39.40
2018-12-20T01:15:14.996Z,40.20
2018-12-20T01:16:14.835Z,39.70
2018-12-20T01:17:14.923Z,39.90
2018-12-20T01:18:14.780Z,39.70
2018-12-20T01:19:14.699Z,40.10
2018-12-20T01:20:14.742Z,40.10
2018-12-20T01:21:14.710Z,41.60
2018-12-20T01:22:14.680Z,40.60
2018-12-20T01:23:14.808Z,39.60
2018-12-20T01:24:15.175Z,41.30
2018-12-20T01:25:14.581Z,42.10
2018-12-20T01:26:14.558Z,40.40
2018-12-20T01:27:14.723Z,41.20
2018-12-20T01:28:14.556Z,41.50
2018-12-20T01:29:14.679Z,41.90
2018-12-20T01:30:14.614Z,40.20
2018-12-20T01:31:14.637Z,40.50
2018-12-20T01:32:14.524Z,41.50
2018-12-20T01:33:14.453Z,41.90
2018-12-20T01:34:14.549Z,43.70
2018-12-20T01:35:14.459Z,42.00
2018-12-20T01:36:14.456Z,41.70
2018-12-20T01:37:14.440Z,40.20
2018-12-20T01:38:14.522Z,43.20
2018-12-20T01:39:14.428Z,42.10
2018-12-20T01:40:14.401Z,42.10
2018-12-20T01:41:14.357Z,41.80
2018-12-20T01:42:14.563Z,40.80
2018-12-20T01:43:14.370Z,41.40
2018-12-20T01:44:14.390Z,42.00
2018-12-20T01:45:15.167Z,41.70
2018-12-20T01:46:14.377Z,42.00
2018-12-20T01:47:14.324Z,41.70
2018-12-20T01:48:14.442Z,42.80
2018-12-20T01:49:14.459Z,42.90
2018-12-20T01:50:14.592Z,43.50
2018-12-20T01:51:14.282Z,42.20
2018-12-20T01:52:15.332Z,42.60
2018-12-20T01:53:14.330Z,41.90
2018-12-20T01:54:14.323Z,42.80
2018-12-20T01:55:14.306Z,42.20
2018-12-20T01:56:14.234Z,44.20
2018-12-20T01:57:14.233Z,43.50
2018-12-20T01:58:14.221Z,43.20
2018-12-20T01:59:14.439Z,42.80
2018-12-20T02:00:14.325Z,44.30
2018-12-20T02:01:14.299Z,42.30
2018-12-20T02:02:14.373Z,43.70
2018-12-20T02:03:14.353Z,44.20
2018-12-20T02:04:14.682Z,44.00
2018-12-20T02:05:14.129Z,46.70
2018-12-20T02:06:14.149Z,43.70
2018-12-20T02:07:14.171Z,42.80
2018-12-20T02:08:14.096Z,42.60
2018-12-20T02:09:14.114Z,44.30
2018-12-20T02:10:14.141Z,43.50
2018-12-20T02:11:14.127Z,43.70
2018-12-20T02:12:14.177Z,42.30
2018-12-20T02:13:14.100Z,43.50
2018-12-20T02:14:14.064Z,43.40
2018-12-20T02:15:14.061Z,43.10
2018-12-20T02:16:14.173Z,43.60
2018-12-20T02:17:14.109Z,45.40
2018-12-20T02:18:14.175Z,45.00
2018-12-20T02:19:14.055Z,43.90
2018-12-20T02:20:14.035Z,44.60
2018-12-20T02:21:14.135Z,43.40
2018-12-20T02:22:13.946Z,45.30
2018-12-20T02:23:14.023Z,43.40
2018-12-20T02:24:13.949Z,43.30
2018-12-20T02:25:13.901Z,45.30
2018-12-20T02:26:13.912Z,44.90
2018-12-20T02:27:14.059Z,44.40
2018-12-20T02:28:14.039Z,45.00
2018-12-20T02:29:14.207Z,43.90
2018-12-20T02:30:13.923Z,45.50
2018-12-20T02:31:14.069Z,45.90
2018-12-20T02:32:13.898Z,47.20
2018-12-20T02:33:14.213Z,45.60
2018-12-20T02:34:14.010Z,44.90
2018-12-20T02:35:14.109Z,44.30
2018-12-20T02:36:13.941Z,45.70
2018-12-20T02:37:13.815Z,44.20
2018-12-20T02:38:13.806Z,46.10
2018-12-20T02:39:13.915Z,44.70
2018-12-20T02:40:13.840Z,46.00
2018-12-20T02:41:13.766Z,44.50
2018-12-20T02:42:13.912Z,44.80
2018-12-20T02:43:13.731Z,45.00
2018-12-20T02:44:13.837Z,45.20
2018-12-20T02:45:13.903Z,45.10
2018-12-20T02:46:13.730Z,46.10
2018-12-20T02:47:13.723Z,46.10
2018-12-20T02:48:13.710Z,46.50
2018-12-20T02:49:13.832Z,45.80
2018-12-20T02:50:13.768Z,45.00
2018-12-20T02:51:13.668Z,45.90
2018-12-20T02:52:13.694Z,45.10
2018-12-20T02:53:13.848Z,43.90
2018-12-20T02:54:13.747Z,47.50
2018-12-20T02:55:13.617Z,44.40
2018-12-20T02:56:13.666Z,48.00
2018-12-20T02:57:13.653Z,45.80
2018-12-20T02:58:13.664Z,46.30
2018-12-20T02:59:13.641Z,47.40
2018-12-20T03:00:13.656Z,47.10
2018-12-20T03:01:13.552Z,46.90
2018-12-20T03:02:13.651Z,47.00
2018-12-20T03:03:13.813Z,47.50
2018-12-20T03:04:13.523Z,45.80
2018-12-20T03:05:13.564Z,47.10
2018-12-20T03:06:13.627Z,45.80
2018-12-20T03:07:13.629Z,48.40
2018-12-20T03:08:13.497Z,46.20
2018-12-20T03:09:13.523Z,47.50
2018-12-20T03:10:13.593Z,48.30
2018-12-20T03:11:13.496Z,46.80
2018-12-20T03:12:13.662Z,47.00
2018-12-20T03:13:13.607Z,49.10
2018-12-20T03:14:21.893Z,49.20
2018-12-20T03:15:23.984Z,46.10
2018-12-20T03:16:13.473Z,48.10
2018-12-20T03:17:13.574Z,49.60
2018-12-20T03:19:30.638Z,48.80
2018-12-20T03:20:30.549Z,47.30
2018-12-20T03:21:30.451Z,49.50
2018-12-20T03:22:30.539Z,48.90
2018-12-20T03:25:00.341Z,45.40
2018-12-20T03:26:00.207Z,47.00
2018-12-20T03:27:00.372Z,47.50
2018-12-20T03:28:00.519Z,46.80
2018-12-20T03:29:00.211Z,49.40
2018-12-20T03:30:00.264Z,48.10
2018-12-20T03:31:00.307Z,45.70
2018-12-20T03:32:09.608Z,48.10
2018-12-20T03:33:00.479Z,49.30
2018-12-20T03:34:00.166Z,47.50
2018-12-20T03:35:00.103Z,48.00
2018-12-20T03:36:00.073Z,49.00
2018-12-20T03:37:00.235Z,48.30
2018-12-20T03:38:00.213Z,50.60
2018-12-20T03:39:00.214Z,49.10
2018-12-20T03:40:00.197Z,49.90
2018-12-20T03:41:00.157Z,46.70
2018-12-20T03:41:59.961Z,47.50
2018-12-20T03:42:59.991Z,48.00
2018-12-20T03:43:59.964Z,47.30
2018-12-20T03:45:00.105Z,48.40
2018-12-20T03:46:00.164Z,48.40
2018-12-20T03:47:00.073Z,49.20
2018-12-20T03:48:00.084Z,47.50
2018-12-20T03:49:00.026Z,48.80
2018-12-20T03:49:59.923Z,47.70
2018-12-20T03:51:00.098Z,50.30
2018-12-20T03:51:59.975Z,48.90
2018-12-20T03:52:59.946Z,48.60
2018-12-20T03:53:59.929Z,49.20
2018-12-20T03:54:59.984Z,48.40
2018-12-20T03:55:59.973Z,49.70
2018-12-20T03:56:59.855Z,49.20
2018-12-20T03:57:59.837Z,47.90
2018-12-20T03:59:00.087Z,50.60
2018-12-20T03:59:59.785Z,48.60
2018-12-20T04:00:59.983Z,49.50
2018-12-20T04:01:59.782Z,49.70
2018-12-20T04:02:59.827Z,49.20
2018-12-20T04:03:59.850Z,51.40
2018-12-20T04:04:59.951Z,48.70
2018-12-20T04:05:59.803Z,50.50
2018-12-20T04:06:59.715Z,53.10
2018-12-20T04:07:59.699Z,52.10
2018-12-20T04:08:59.845Z,51.20
2018-12-20T04:09:59.713Z,51.10
2018-12-20T04:10:59.855Z,51.30
2018-12-20T04:11:59.757Z,53.00
2018-12-20T04:12:59.642Z,52.30
2018-12-20T04:13:59.647Z,52.50
2018-12-20T04:14:59.750Z,52.50
2018-12-20T04:15:59.855Z,53.00
2018-12-20T04:16:59.655Z,53.00
2018-12-20T04:17:59.602Z,51.10
2018-12-20T04:18:59.822Z,53.90
2018-12-20T04:19:59.570Z,52.30
2018-12-20T04:20:59.608Z,51.90
2018-12-20T04:21:59.576Z,54.10
2018-12-20T04:22:59.532Z,50.80
2018-12-20T04:23:59.764Z,50.90
2018-12-20T04:24:59.552Z,52.00
2018-12-20T04:25:59.561Z,55.60
2018-12-20T04:26:59.523Z,52.70
2018-12-20T04:27:59.600Z,52.70
2018-12-20T04:28:59.508Z,52.40
2018-12-20T04:29:59.577Z,54.00
2018-12-20T04:30:59.546Z,55.30
2018-12-20T04:31:59.682Z,53.10
2018-12-20T04:32:59.436Z,53.60
2018-12-20T04:33:59.514Z,52.60
2018-12-20T04:34:59.606Z,54.00
2018-12-20T04:35:59.506Z,53.10
2018-12-20T04:36:59.425Z,53.20
2018-12-20T04:37:59.418Z,55.00
2018-12-20T04:38:59.598Z,54.10
2018-12-20T04:39:59.663Z,52.90
2018-12-20T04:40:59.459Z,54.60
2018-12-20T04:41:59.443Z,54.10
2018-12-20T04:42:59.400Z,55.50
2018-12-20T04:43:59.338Z,53.30
2018-12-20T04:44:59.366Z,53.80
2018-12-20T04:45:59.429Z,54.40
2018-12-20T04:46:59.698Z,55.90
2018-12-20T04:47:59.423Z,55.10
2018-12-20T04:48:59.484Z,52.90
2018-12-20T04:49:59.491Z,56.30
2018-12-20T04:50:59.438Z,54.20
2018-12-20T04:51:59.612Z,53.20
2018-12-20T04:52:59.266Z,55.20
2018-12-20T04:53:59.229Z,53.90
2018-12-20T04:54:59.324Z,54.70
2018-12-20T04:55:59.244Z,54.70
2018-12-20T04:56:59.417Z,56.10
2018-12-20T04:57:59.212Z,53.20
2018-12-20T04:58:59.185Z,53.20
2018-12-20T04:59:59.234Z,57.00
2018-12-20T05:00:59.157Z,56.50
2018-12-20T05:01:59.141Z,55.00
2018-12-20T05:02:59.132Z,56.30
2018-12-20T05:03:59.343Z,55.20
2018-12-20T05:04:59.120Z,54.00
2018-12-20T05:05:59.143Z,56.30
2018-12-20T05:06:59.279Z,56.60
2018-12-20T05:07:59.319Z,54.50
2018-12-20T05:08:59.069Z,56.50
2018-12-20T05:09:59.353Z,55.70
2018-12-20T05:10:59.064Z,54.80
2018-12-20T05:11:59.116Z,56.30
2018-12-20T05:12:59.052Z,55.40
2018-12-20T05:13:59.221Z,56.40
2018-12-20T05:14:59.044Z,56.30
2018-12-20T05:15:58.987Z,56.60
2018-12-20T05:16:59.143Z,53.70
2018-12-20T05:17:59.011Z,54.10
2018-12-20T05:18:59.231Z,56.00
2018-12-20T05:19:59.032Z,55.60
2018-12-20T05:20:58.942Z,54.90
2018-12-20T05:21:58.959Z,55.30
2018-12-20T05:22:58.948Z,52.40
2018-12-20T05:23:58.933Z,54.00
2018-12-20T05:24:58.895Z,55.90
2018-12-20T05:25:59.225Z,54.40
2018-12-20T05:26:58.960Z,55.80
2018-12-20T05:27:58.887Z,55.40
2018-12-20T05:28:58.904Z,57.00
2018-12-20T05:29:58.942Z,54.70
2018-12-20T05:30:58.892Z,55.20
2018-12-20T05:31:59.059Z,53.10
2018-12-20T05:32:58.861Z,53.80
2018-12-20T05:33:59.101Z,55.80
2018-12-20T05:34:58.785Z,55.30
2018-12-20T05:35:58.805Z,57.00
2018-12-20T05:36:58.797Z,53.30
2018-12-20T05:37:58.960Z,53.50
2018-12-20T05:38:58.759Z,55.30
2018-12-20T05:39:58.968Z,55.70
2018-12-20T05:40:58.757Z,55.20
2018-12-20T05:41:59.196Z,53.80
2018-12-20T05:42:59.124Z,54.10
2018-12-20T05:43:58.781Z,54.80
2018-12-20T05:44:58.749Z,55.60
2018-12-20T05:46:04.458Z,54.90
2018-12-20T05:46:59.729Z,56.00
2018-12-20T05:47:58.923Z,52.00
2018-12-20T05:48:58.990Z,55.90
2018-12-20T05:49:58.889Z,55.20
2018-12-20T05:50:58.985Z,54.00
2018-12-20T05:51:58.733Z,55.60
2018-12-20T05:52:59.227Z,55.40
2018-12-20T05:53:58.788Z,55.60
2018-12-20T05:54:58.951Z,53.40
2018-12-20T05:55:58.851Z,57.30
2018-12-20T05:56:58.683Z,54.20
2018-12-20T05:57:58.647Z,53.30
2018-12-20T05:58:58.619Z,55.40
2018-12-20T05:59:58.707Z,54.90
2018-12-20T06:00:58.669Z,55.70
2018-12-20T06:01:58.575Z,54.70
2018-12-20T06:02:58.795Z,56.00
2018-12-20T06:03:58.580Z,56.20
2018-12-20T06:04:58.510Z,53.20
2018-12-20T06:05:58.517Z,54.70
2018-12-20T06:06:58.564Z,54.30
2018-12-20T06:07:58.747Z,54.70
2018-12-20T06:08:58.653Z,55.20
2018-12-20T06:09:58.441Z,53.00
2018-12-20T06:10:58.654Z,54.30
2018-12-20T06:11:58.544Z,55.90
2018-12-20T06:12:58.704Z,52.90
2018-12-20T06:13:58.751Z,55.00
2018-12-20T06:14:58.534Z,54.90
2018-12-20T06:15:58.455Z,55.00
2018-12-20T06:16:59.213Z,52.60
2018-12-20T06:17:58.549Z,55.00
2018-12-20T06:18:58.392Z,52.80
2018-12-20T06:19:58.445Z,53.00
2018-12-20T06:20:58.342Z,53.10
2018-12-20T06:21:58.381Z,53.60
2018-12-20T06:22:59.465Z,54.00
2018-12-20T06:23:58.322Z,51.70
2018-12-20T06:24:58.524Z,54.20
2018-12-20T06:25:58.295Z,53.30
2018-12-20T06:26:58.310Z,53.40
2018-12-20T06:27:58.288Z,55.20
2018-12-20T06:28:58.260Z,54.70
2018-12-20T06:29:58.313Z,54.40
2018-12-20T06:30:58.283Z,51.60
2018-12-20T06:31:58.252Z,53.90
2018-12-20T06:32:58.225Z,56.70
2018-12-20T06:33:58.243Z,53.40
2018-12-20T06:34:58.188Z,52.90
2018-12-20T06:35:58.727Z,54.00
2018-12-20T06:36:58.185Z,52.20
2018-12-20T06:37:58.214Z,54.40
2018-12-20T06:38:58.139Z,53.50
2018-12-20T06:39:58.128Z,52.20
2018-12-20T06:40:58.123Z,56.60
2018-12-20T06:41:58.104Z,57.00
2018-12-20T06:42:58.153Z,54.70
2018-12-20T06:43:58.079Z,56.60
2018-12-20T06:44:58.124Z,56.20
2018-12-20T06:45:58.100Z,56.80
2018-12-20T06:46:58.076Z,56.00
2018-12-20T06:47:58.068Z,53.00
2018-12-20T06:48:58.083Z,55.70
2018-12-20T06:49:58.060Z,54.90
2018-12-20T06:50:58.035Z,56.20
2018-12-20T06:51:58.019Z,54.50
2018-12-20T06:52:58.009Z,54.30
2018-12-20T06:53:58.034Z,55.00
2018-12-20T06:54:58.012Z,56.60
2018-12-20T06:55:57.990Z,56.10
2018-12-20T06:56:57.984Z,57.40
2018-12-20T06:57:57.967Z,57.10
2018-12-20T06:58:57.941Z,55.70
2018-12-20T06:59:57.952Z,55.90
2018-12-20T07:00:57.936Z,55.10
2018-12-20T07:01:57.898Z,56.40
2018-12-20T07:02:57.909Z,56.60
2018-12-20T07:03:57.917Z,54.40
2018-12-20T07:04:58.349Z,57.10
2018-12-20T07:05:57.871Z,54.10
2018-12-20T07:06:57.854Z,54.30
2018-12-20T07:07:57.845Z,55.00
2018-12-20T07:08:57.847Z,54.70
2018-12-20T07:09:57.830Z,57.40
2018-12-20T07:10:57.894Z,57.00
2018-12-20T07:11:57.806Z,56.50
2018-12-20T07:12:57.797Z,54.60
2018-12-20T07:13:57.777Z,58.20
2018-12-20T07:14:57.869Z,55.90
2018-12-20T07:15:57.760Z,59.70
2018-12-20T07:16:57.763Z,60.60
2018-12-20T07:17:57.768Z,60.00
2018-12-20T07:18:57.749Z,61.00
2018-12-20T07:19:57.705Z,57.00
2018-12-20T07:20:57.743Z,58.80
2018-12-20T07:21:57.697Z,60.30
2018-12-20T07:22:57.693Z,58.00
2018-12-20T07:23:57.711Z,57.50
2018-12-20T07:24:57.688Z,57.10
2018-12-20T07:25:57.673Z,58.90
2018-12-20T07:26:57.700Z,57.30
2018-12-20T07:27:57.622Z,58.20
2018-12-20T07:28:57.646Z,61.50
2018-12-20T07:29:57.608Z,56.70
2018-12-20T07:30:57.603Z,57.90
2018-12-20T07:31:57.606Z,56.30
2018-12-20T07:32:57.607Z,58.10
2018-12-20T07:33:57.572Z,57.70
2018-12-20T07:34:57.581Z,56.10
2018-12-20T07:35:57.546Z,60.00
2018-12-20T07:36:57.574Z,58.60
2018-12-20T07:37:57.557Z,56.10
2018-12-20T07:38:57.531Z,59.60
2018-12-20T07:39:57.514Z,59.00
2018-12-20T07:40:57.500Z,58.20
2018-12-20T07:41:57.478Z,59.60
2018-12-20T07:42:57.503Z,57.30
2018-12-20T07:43:57.472Z,55.50
2018-12-20T07:44:57.456Z,53.30
2018-12-20T07:45:57.437Z,56.60
2018-12-20T07:46:57.430Z,56.10
2018-12-20T07:47:57.456Z,58.30
2018-12-20T07:48:57.454Z,57.50
2018-12-20T07:49:57.406Z,56.90
2018-12-20T07:50:57.434Z,55.10
2018-12-20T07:51:57.412Z,55.30
2018-12-20T07:52:57.447Z,54.90
2018-12-20T07:53:57.358Z,55.20
2018-12-20T07:54:57.375Z,57.70
2018-12-20T07:55:57.448Z,57.20
2018-12-20T07:56:57.341Z,55.10
2018-12-20T07:57:57.334Z,57.60
2018-12-20T07:58:57.316Z,54.10
2018-12-20T07:59:57.314Z,55.70
2018-12-20T08:00:57.298Z,53.90
2018-12-20T08:01:57.279Z,55.10
2018-12-20T08:02:57.285Z,57.10
2018-12-20T08:03:57.301Z,57.80
2018-12-20T08:04:57.239Z,57.90
2018-12-20T08:05:57.249Z,55.90
2018-12-20T08:06:57.234Z,56.00
2018-12-20T08:07:57.236Z,55.70
2018-12-20T08:08:57.248Z,54.00
2018-12-20T08:09:57.177Z,53.70
2018-12-20T08:10:57.223Z,52.90
2018-12-20T08:11:57.172Z,52.40
2018-12-20T08:12:57.180Z,54.70
2018-12-20T08:13:57.225Z,53.10
2018-12-20T08:14:57.138Z,53.70
2018-12-20T08:15:57.140Z,54.00
2018-12-20T08:16:57.114Z,53.50
2018-12-20T08:17:57.127Z,53.70
2018-12-20T08:18:57.175Z,51.00
2018-12-20T08:19:57.092Z,50.70
2018-12-20T08:20:57.115Z,49.60
2018-12-20T08:21:57.130Z,53.00
2018-12-20T08:22:57.080Z,51.10
2018-12-20T08:23:57.036Z,51.60
2018-12-20T08:24:57.043Z,51.50
2018-12-20T08:25:57.024Z,52.00
2018-12-20T08:26:57.011Z,50.80
2018-12-20T08:27:57.099Z,50.90
2018-12-20T08:28:57.028Z,48.90
2018-12-20T08:29:56.977Z,50.40
2018-12-20T08:30:56.988Z,50.10
2018-12-20T08:31:56.986Z,50.50
2018-12-20T08:32:57.043Z,48.50
2018-12-20T08:33:57.871Z,49.80
2018-12-20T08:34:57.791Z,50.10
2018-12-20T08:35:57.842Z,49.00
2018-12-20T08:36:57.813Z,49.60
2018-12-20T08:37:56.925Z,48.20
2018-12-20T08:38:57.074Z,48.10
2018-12-20T08:39:56.933Z,49.00
2018-12-20T08:40:56.917Z,48.00
2018-12-20T08:41:57.022Z,48.10
2018-12-20T08:42:56.876Z,48.60
2018-12-20T08:43:56.872Z,51.10
2018-12-20T08:44:56.881Z,50.60
2018-12-20T08:45:56.837Z,48.50
2018-12-20T08:46:56.806Z,47.80
2018-12-20T08:47:56.814Z,47.90
2018-12-20T08:48:56.787Z,48.90
2018-12-20T08:49:56.813Z,48.50
2018-12-20T08:50:56.803Z,47.90
2018-12-20T08:51:56.766Z,48.70
2018-12-20T08:52:56.769Z,47.60
2018-12-20T08:53:56.784Z,47.00
2018-12-20T08:54:56.742Z,46.10
2018-12-20T08:55:56.771Z,48.00
2018-12-20T08:56:56.692Z,46.20
2018-12-20T08:57:56.734Z,47.50
2018-12-20T08:58:56.692Z,47.20
2018-12-20T08:59:56.714Z,49.20
2018-12-20T09:00:56.717Z,48.80
2018-12-20T09:01:56.780Z,46.30
2018-12-20T09:02:56.680Z,46.70
2018-12-20T09:03:56.617Z,47.50
2018-12-20T09:04:56.667Z,48.00
2018-12-20T09:05:56.625Z,44.40
2018-12-20T09:06:56.576Z,46.70
2018-12-20T09:07:56.644Z,45.70
2018-12-20T09:08:56.685Z,47.10
2018-12-20T09:09:56.563Z,48.30
2018-12-20T09:10:57.535Z,48.00
2018-12-20T09:12:05.336Z,45.40
2018-12-20T09:12:56.530Z,47.80
2018-12-20T09:13:56.510Z,47.90
2018-12-20T09:14:56.509Z,45.40
2018-12-20T09:15:56.504Z,46.20
2018-12-20T09:17:02.881Z,46.20
2018-12-20T09:17:57.481Z,44.90
2018-12-20T09:18:56.478Z,46.80
2018-12-20T09:19:56.460Z,45.10
2018-12-20T09:20:56.430Z,44.70
2018-12-20T09:21:56.455Z,46.60
2018-12-20T09:22:56.435Z,45.80
2018-12-20T09:23:56.449Z,46.90
2018-12-20T09:24:56.388Z,45.30
2018-12-20T09:25:56.408Z,46.50
2018-12-20T09:26:56.372Z,45.20
2018-12-20T09:27:56.395Z,45.40
2018-12-20T09:28:56.377Z,44.90
2018-12-20T09:29:56.354Z,45.10
2018-12-20T09:30:56.340Z,44.90
2018-12-20T09:31:56.316Z,45.60
2018-12-20T09:32:56.380Z,45.70
2018-12-20T09:33:56.364Z,45.60
2018-12-20T09:34:56.303Z,45.40
2018-12-20T09:35:56.302Z,45.80
2018-12-20T09:36:56.268Z,45.90
2018-12-20T09:37:56.250Z,44.90
2018-12-20T09:38:56.249Z,46.40
2018-12-20T09:39:56.410Z,44.50
2018-12-20T09:40:56.234Z,44.00
2018-12-20T09:41:56.240Z,45.20
2018-12-20T09:42:56.200Z,45.30
2018-12-20T09:43:56.208Z,45.90
2018-12-20T09:44:56.186Z,43.70
2018-12-20T09:45:56.185Z,45.80
2018-12-20T09:46:56.217Z,45.00
2018-12-20T09:47:56.177Z,44.20
2018-12-20T09:48:56.145Z,43.70
2018-12-20T09:49:56.169Z,44.00
2018-12-20T09:50:56.155Z,43.60
2018-12-20T09:51:56.107Z,44.40
2018-12-20T09:52:56.107Z,45.00
2018-12-20T09:53:56.084Z,45.10
2018-12-20T09:55:05.451Z,44.60
2018-12-20T09:55:56.154Z,43.10
2018-12-20T09:56:56.078Z,45.50
2018-12-20T09:57:56.066Z,45.50
2018-12-20T09:58:56.082Z,45.00
2018-12-20T09:59:56.062Z,45.90
2018-12-20T10:00:56.097Z,46.90
2018-12-20T10:01:56.173Z,45.50
2018-12-20T10:02:56.013Z,44.10
2018-12-20T10:03:56.009Z,44.60
2018-12-20T10:04:56.022Z,44.90
2018-12-20T10:05:56.038Z,44.10
2018-12-20T10:06:56.043Z,45.00
2018-12-20T10:07:55.982Z,44.10
2018-12-20T10:08:55.977Z,44.60
2018-12-20T10:09:56.012Z,45.20
2018-12-20T10:10:55.958Z,43.90
2018-12-20T10:11:55.927Z,43.60
2018-12-20T10:12:55.930Z,42.50
2018-12-20T10:13:55.914Z,45.00
2018-12-20T10:14:55.910Z,46.20
2018-12-20T10:16:04.975Z,43.90
2018-12-20T10:17:04.526Z,44.50
2018-12-20T10:18:04.567Z,45.00
2018-12-20T10:20:12.957Z,43.80
2018-12-20T10:21:23.295Z,43.20
2018-12-20T10:22:22.355Z,44.20
2018-12-20T10:23:21.874Z,44.60
2018-12-20T10:24:12.870Z,42.10
2018-12-20T10:25:12.896Z,43.30
2018-12-20T10:26:12.863Z,43.90
2018-12-20T10:27:12.903Z,44.50
2018-12-20T10:31:20.238Z,44.40
2018-12-20T10:32:20.024Z,43.30
2018-12-20T10:33:19.974Z,43.30
2018-12-20T10:34:21.002Z,42.10
2018-12-20T10:35:19.908Z,43.20
2018-12-20T10:36:19.999Z,44.70
2018-12-20T10:37:20.205Z,45.20
2018-12-20T10:38:20.730Z,44.70
2018-12-20T10:39:20.759Z,44.60
2018-12-20T10:40:19.959Z,47.50
2018-12-20T10:41:20.272Z,47.40
2018-12-20T10:42:19.916Z,44.90
2018-12-20T10:44:31.017Z,42.80
2018-12-20T10:45:33.411Z,42.70
2018-12-20T10:46:31.005Z,43.70
2018-12-20T10:47:31.000Z,42.90
2018-12-20T10:48:31.181Z,44.70
2018-12-20T10:49:31.744Z,43.90
2018-12-20T10:50:31.009Z,44.10
2018-12-20T10:51:31.368Z,43.40
2018-12-20T10:52:30.945Z,43.20
2018-12-20T10:53:30.944Z,42.50
2018-12-20T10:54:30.900Z,41.90
2018-12-20T10:55:30.863Z,42.70
2018-12-20T10:56:31.056Z,43.90
2018-12-20T10:57:30.933Z,44.20
2018-12-20T10:58:30.813Z,43.60
2018-12-20T10:59:31.560Z,42.60
2018-12-20T11:00:30.894Z,42.90
2018-12-20T11:01:30.811Z,45.70
2018-12-20T11:02:30.952Z,45.00
2018-12-20T11:03:31.292Z,44.80
2018-12-20T11:04:31.083Z,44.40
2018-12-20T11:05:30.852Z,43.20
2018-12-20T11:06:30.772Z,43.00
2018-12-20T11:07:31.061Z,42.00
2018-12-20T11:08:31.056Z,43.80
2018-12-20T11:09:30.774Z,43.20
2018-12-20T11:10:31.103Z,42.80
2018-12-20T11:11:30.931Z,41.90
2018-12-20T11:12:30.720Z,44.90
2018-12-20T11:13:30.748Z,45.10
2018-12-20T11:14:31.213Z,42.60
2018-12-20T11:15:30.815Z,47.10
2018-12-20T11:16:30.712Z,41.90
2018-12-20T11:17:37.391Z,42.70
2018-12-20T11:18:31.819Z,44.40
2018-12-20T11:19:30.705Z,43.10
2018-12-20T11:20:30.646Z,42.80
2018-12-20T11:21:30.724Z,43.50
2018-12-20T11:22:30.666Z,45.90
2018-12-20T11:23:30.659Z,46.00
2018-12-20T11:24:30.731Z,47.30
2018-12-20T11:25:30.668Z,49.80
2018-12-20T11:26:30.615Z,45.10
2018-12-20T11:27:30.658Z,47.40
2018-12-20T11:28:30.600Z,47.10
2018-12-20T11:29:30.581Z,47.80
2018-12-20T11:30:30.818Z,47.10
2018-12-20T11:31:30.576Z,49.60
2018-12-20T11:32:30.498Z,46.70
2018-12-20T11:33:30.529Z,47.50
2018-12-20T11:34:30.589Z,47.50
2018-12-20T11:35:30.568Z,47.00
2018-12-20T11:36:30.570Z,45.70
2018-12-20T11:37:30.463Z,46.90
2018-12-20T11:38:30.463Z,46.90
2018-12-20T11:39:30.434Z,42.60
2018-12-20T11:40:30.428Z,45.20
2018-12-20T11:41:30.518Z,45.20
2018-12-20T11:42:30.615Z,43.90
2018-12-20T11:43:30.463Z,43.50
2018-12-20T11:44:30.520Z,43.60
2018-12-20T11:45:30.416Z,46.20
2018-12-20T11:46:30.386Z,44.60
2018-12-20T11:47:30.338Z,42.20
2018-12-20T11:48:30.343Z,44.20
2018-12-20T11:49:30.429Z,43.70
2018-12-20T11:50:30.706Z,45.70
2018-12-20T11:51:30.338Z,42.40
2018-12-20T11:52:30.325Z,44.30
2018-12-20T11:53:30.303Z,44.30
2018-12-20T11:54:30.351Z,43.10
2018-12-20T11:55:30.265Z,43.70
2018-12-20T11:56:30.355Z,43.70
2018-12-20T11:57:30.647Z,40.90
2018-12-20T11:58:30.301Z,41.50
2018-12-20T11:59:30.272Z,41.40
2018-12-20T12:00:30.298Z,42.90
2018-12-20T12:01:30.534Z,41.10
2018-12-20T12:02:30.296Z,41.00
2018-12-20T12:03:30.515Z,42.00
2018-12-20T12:04:30.416Z,40.80
2018-12-20T12:05:30.837Z,41.60
2018-12-20T12:06:31.357Z,39.60
2018-12-20T12:07:30.337Z,41.70
2018-12-20T12:08:30.426Z,39.90
2018-12-20T12:09:30.219Z,43.90
2018-12-20T12:10:30.502Z,42.10
2018-12-20T12:11:30.211Z,41.50
2018-12-20T12:12:30.264Z,41.90
2018-12-20T12:13:41.230Z,39.80
2018-12-20T12:14:30.177Z,41.80
2018-12-20T12:17:54.308Z,41.80
2018-12-20T12:18:53.104Z,43.00
2018-12-20T12:19:51.998Z,41.30
2018-12-20T12:20:53.366Z,41.30
2018-12-20T12:23:06.578Z,39.90
2018-12-20T12:27:07.896Z,41.70
2018-12-20T12:30:00.083Z,41.00
2018-12-20T12:31:02.158Z,42.10
2018-12-20T12:37:42.525Z,41.10
2018-12-20T12:42:30.542Z,37.60
2018-12-20T12:49:51.030Z,37.30
2018-12-20T12:52:01.028Z,39.20
2018-12-20T12:53:01.141Z,38.30
2018-12-20T12:54:01.659Z,37.90
2018-12-20T12:55:01.478Z,38.20
2018-12-20T12:57:22.363Z,38.90
2018-12-20T13:03:36.062Z,36.10
2018-12-20T13:04:35.977Z,38.00
2018-12-20T13:05:36.006Z,38.20
2018-12-20T13:06:35.923Z,37.10
2018-12-20T13:07:35.909Z,37.10
2018-12-20T13:08:35.895Z,38.00
2018-12-20T13:09:36.815Z,37.40
2018-12-20T13:10:36.054Z,38.00
2018-12-20T13:11:35.872Z,36.60
2018-12-20T13:12:35.884Z,38.20
2018-12-20T13:13:45.922Z,36.70
2018-12-20T13:14:35.825Z,35.90
2018-12-20T13:15:35.846Z,37.40
2018-12-20T13:16:35.855Z,37.20
2018-12-20T13:17:35.940Z,38.00
2018-12-20T13:18:35.802Z,39.80
2018-12-20T13:19:35.797Z,37.40
2018-12-20T13:20:35.781Z,38.60
2018-12-20T13:21:35.805Z,37.40
2018-12-20T13:22:35.762Z,38.20
2018-12-20T13:23:35.765Z,37.20
2018-12-20T13:24:35.721Z,36.60
2018-12-20T13:25:35.711Z,36.40
2018-12-20T13:26:35.723Z,38.50
2018-12-20T13:27:35.700Z,35.30
2018-12-20T13:28:35.752Z,37.30
2018-12-20T13:29:35.696Z,36.90
2018-12-20T13:30:35.693Z,36.80
2018-12-20T13:31:35.680Z,37.60
2018-12-20T13:32:35.682Z,37.30
2018-12-20T13:33:35.670Z,37.40
2018-12-20T13:34:35.643Z,40.10